Time;durP1;ratioP1;P1;durP2;ratioP2;P2;SDS_P1;SDS_P2;PMS_P1;PMS_P2;Temp;Humidity;BMP_temperature;BMP_pressure;BME280_temperature;BME280_humidity;BME280_pressure;Samples;Min_cycle;Max_cycle;Signal;HPM_P1;HPM_P2
2023/11/05 00:01:51;;;;;;;1.15;0.50;;;;;;;10.76;97.12;96425.41;10392736;28;20060;-54
2023/11/05 00:06:53;;;;;;;1.90;0.60;;;;;;;10.89;96.98;96451.09;10387751;28;20684;-55
2023/11/05 00:11:54;;;;;;;1.85;0.77;;;;;;;10.88;96.77;96439.63;10384842;28;20151;-54
2023/11/05 00:16:56;;;;;;;2.17;0.63;;;;;;;10.87;96.11;96432.69;10389049;28;20109;-54
2023/11/05 00:21:57;;;;;;;2.33;0.50;;;;;;;10.89;96.05;96411.19;10389056;28;20053;-55
2023/11/05 00:26:59;;;;;;;1.63;0.40;;;;;;;10.87;95.89;96399.94;10385788;28;20678;-55
2023/11/05 00:32:00;;;;;;;1.60;0.30;;;;;;;10.93;95.28;96418.53;10389377;28;20065;-55
2023/11/05 00:37:02;;;;;;;1.85;0.50;;;;;;;10.94;94.63;96412.16;10385971;28;20210;-56
2023/11/05 00:42:04;;;;;;;2.50;0.52;;;;;;;10.81;94.47;96380.38;10386573;28;20045;-55
2023/11/05 00:47:05;;;;;;;2.20;0.57;;;;;;;11.03;94.23;96383.41;10382030;28;20067;-55
2023/11/05 00:52:07;;;;;;;3.05;0.50;;;;;;;11.06;93.90;96384.81;10384922;28;20049;-55
2023/11/05 00:57:08;;;;;;;2.28;0.20;;;;;;;10.99;94.18;96376.09;10386913;28;20060;-55
2023/11/05 01:02:10;;;;;;;2.70;0.40;;;;;;;10.95;94.44;96371.22;10385873;28;20065;-56
2023/11/05 01:07:12;;;;;;;2.42;0.17;;;;;;;11.05;94.23;96367.22;10389871;28;20100;-57
2023/11/05 01:12:14;;;;;;;1.48;0.30;;;;;;;11.12;93.19;96366.13;10387017;28;20053;-55
2023/11/05 01:17:16;;;;;;;1.73;0.45;;;;;;;11.15;92.77;96359.53;10387619;28;20087;-54
2023/11/05 01:22:20;;;;;;;1.80;0.30;;;;;;;11.12;92.00;96355.50;10382401;28;20477;-55
2023/11/05 01:27:22;;;;;;;1.65;0.35;;;;;;;11.24;91.19;96350.19;10383154;28;20056;-55
2023/11/05 01:32:23;;;;;;;2.22;0.35;;;;;;;11.24;91.50;96338.75;10378623;28;20139;-55
2023/11/05 01:37:25;;;;;;;1.88;0.50;;;;;;;11.22;93.55;96328.34;10382109;28;20052;-54
2023/11/05 01:42:26;;;;;;;2.38;0.20;;;;;;;11.13;92.45;96308.38;10389312;28;20436;-57
2023/11/05 01:47:28;;;;;;;3.75;1.02;;;;;;;11.22;92.26;96311.56;10385225;28;20061;-55
2023/11/05 01:52:30;;;;;;;3.55;0.28;;;;;;;11.19;91.31;96296.84;10379189;28;20049;-56
2023/11/05 01:57:32;;;;;;;3.58;0.47;;;;;;;11.22;90.00;96284.94;10383214;28;20049;-55
2023/11/05 02:02:34;;;;;;;2.13;0.45;;;;;;;11.26;89.84;96278.09;10379846;28;20718;-57
2023/11/05 02:07:36;;;;;;;3.78;0.40;;;;;;;11.24;89.04;96264.22;10384276;28;20080;-59
2023/11/05 02:12:38;;;;;;;1.83;0.20;;;;;;;11.39;88.44;96266.47;10386755;28;20059;-54
2023/11/05 02:17:41;;;;;;;1.30;0.35;;;;;;;11.41;87.63;96243.09;10382448;28;21537;-53
2023/11/05 02:22:46;;;;;;;3.53;0.22;;;;;;;11.39;87.90;96226.53;10417483;28;20116;-53
2023/11/05 02:27:51;;;;;;;2.30;0.30;;;;;;;11.38;86.84;96214.25;10411562;28;20045;-55
2023/11/05 02:32:52;;;;;;;1.20;0.20;;;;;;;11.43;84.37;96219.72;10387801;28;20271;-55
2023/11/05 02:37:54;;;;;;;0.60;0.10;;;;;;;11.39;84.99;96194.59;10371548;28;20055;-55
2023/11/05 02:42:55;;;;;;;1.60;0.20;;;;;;;11.47;83.25;96196.94;10377651;28;20091;-54
2023/11/05 02:47:57;;;;;;;0.63;0.20;;;;;;;11.55;81.99;96203.78;10368053;28;20139;-54
2023/11/05 02:53:05;;;;;;;2.05;0.65;;;;;;;11.61;81.92;96209.00;10384390;28;20054;-54
2023/11/05 02:58:07;;;;;;;2.47;0.30;;;;;;;11.62;80.86;96207.97;10373614;28;20606;-59
2023/11/05 03:03:10;;;;;;;2.83;0.40;;;;;;;11.63;81.00;96177.63;10376618;28;20633;-54
2023/11/05 03:08:12;;;;;;;1.60;0.38;;;;;;;11.68;80.24;96183.06;10382078;28;20119;-54
2023/11/05 03:13:13;;;;;;;2.22;0.20;;;;;;;11.68;78.71;96191.06;10377908;28;20464;-55
2023/11/05 03:18:15;;;;;;;2.38;0.30;;;;;;;11.76;79.64;96181.13;10384449;28;20052;-54
2023/11/05 03:23:16;;;;;;;2.47;0.30;;;;;;;11.72;78.29;96182.59;10383146;28;20053;-54
2023/11/05 03:28:18;;;;;;;2.15;0.30;;;;;;;11.73;79.23;96168.25;10381733;28;20042;-54
2023/11/05 03:33:20;;;;;;;1.17;0.25;;;;;;;11.76;78.68;96179.25;10389423;28;20053;-55
2023/11/05 03:38:21;;;;;;;1.65;0.52;;;;;;;11.63;79.39;96168.81;10383339;28;20053;-55
2023/11/05 03:43:23;;;;;;;1.83;0.50;;;;;;;11.79;79.30;96183.31;10381711;28;20048;-54
2023/11/05 03:48:25;;;;;;;1.95;0.30;;;;;;;11.78;79.17;96179.81;10378479;28;20057;-54
2023/11/05 03:53:26;;;;;;;4.50;0.77;;;;;;;11.67;79.58;96154.00;10380056;28;20091;-54
2023/11/05 03:58:28;;;;;;;5.57;1.45;;;;;;;11.74;79.46;96180.50;10380859;28;20045;-55
2023/11/05 04:03:29;;;;;;;0.70;0.30;;;;;;;11.67;80.46;96167.31;10385120;28;20049;-55
2023/11/05 04:08:31;;;;;;;3.50;0.40;;;;;;;11.76;81.12;96178.44;10380730;28;20049;-55
2023/11/05 04:13:32;;;;;;;3.60;0.30;;;;;;;11.68;81.31;96176.94;10381686;28;20366;-55
2023/11/05 04:18:34;;;;;;;2.92;0.35;;;;;;;11.71;82.58;96154.34;10379207;28;20044;-55
2023/11/05 04:23:35;;;;;;;1.58;0.45;;;;;;;11.64;82.83;96141.94;10381599;28;20104;-55
2023/11/05 04:28:37;;;;;;;2.75;0.40;;;;;;;11.58;83.92;96134.88;10382215;28;20045;-55
2023/11/05 04:33:38;;;;;;;2.40;0.30;;;;;;;11.61;85.36;96137.06;10383524;28;20111;-55
2023/11/05 04:38:40;;;;;;;4.47;0.88;;;;;;;11.54;87.60;96133.72;10378282;28;20070;-55
2023/11/05 04:43:41;;;;;;;2.13;0.40;;;;;;;11.47;87.51;96131.16;10378429;28;20064;-55
2023/11/05 04:48:43;;;;;;;2.75;0.70;;;;;;;11.40;88.05;96129.66;10383377;28;20511;-55
2023/11/05 04:53:46;;;;;;;3.05;0.60;;;;;;;11.36;86.94;96133.81;10397373;28;20134;-54
2023/11/05 04:58:47;;;;;;;4.53;0.85;;;;;;;11.29;87.15;96126.75;10389384;28;20322;-54
2023/11/05 05:03:49;;;;;;;2.58;0.32;;;;;;;11.25;86.31;96109.59;10386945;28;20053;-54
2023/11/05 05:08:51;;;;;;;1.88;0.32;;;;;;;11.35;86.57;96132.19;10385142;28;20056;-55
2023/11/05 05:13:52;;;;;;;1.75;0.45;;;;;;;11.43;86.67;96137.19;10380553;28;20080;-56
2023/11/05 05:18:54;;;;;;;2.45;0.30;;;;;;;11.47;86.56;96136.50;10389458;28;20060;-55
2023/11/05 05:23:55;;;;;;;3.42;0.30;;;;;;;11.51;86.29;96142.16;10390114;28;20075;-55
2023/11/05 05:28:57;;;;;;;3.92;1.13;;;;;;;11.47;85.88;96128.50;10388643;28;20786;-55
2023/11/05 05:33:59;;;;;;;2.92;0.50;;;;;;;11.45;86.04;96129.78;10385523;28;20048;-55
2023/11/05 05:39:01;;;;;;;3.53;0.30;;;;;;;11.48;85.48;96146.13;10383736;28;20048;-56
2023/11/05 05:44:02;;;;;;;2.05;0.50;;;;;;;11.50;85.79;96143.22;10386162;28;20686;-55
2023/11/05 05:49:04;;;;;;;2.10;0.45;;;;;;;11.31;85.70;96103.34;10387690;28;20063;-55
2023/11/05 05:54:05;;;;;;;2.03;0.40;;;;;;;11.56;85.45;96139.63;10390493;28;20848;-55
2023/11/05 05:59:07;;;;;;;4.05;0.50;;;;;;;11.59;85.08;96146.34;10381360;28;20045;-55
2023/11/05 06:04:09;;;;;;;3.53;0.47;;;;;;;11.60;84.83;96156.75;10386225;28;20052;-59
2023/11/05 06:09:15;;;;;;;3.55;0.70;;;;;;;11.60;84.91;96159.41;10378204;28;20132;-54
2023/11/05 06:14:17;;;;;;;2.33;0.60;;;;;;;11.48;84.66;96145.28;10379752;28;20045;-55
2023/11/05 06:19:29;;;;;;;3.70;0.95;;;;;;;11.64;84.54;96155.25;10389983;28;20147;-55
2023/11/05 06:24:31;;;;;;;2.90;0.63;;;;;;;11.61;84.37;96171.69;10387792;28;20049;-54
2023/11/05 06:29:32;;;;;;;1.27;0.28;;;;;;;11.65;84.59;96170.22;10381968;28;20103;-55
2023/11/05 06:34:34;;;;;;;3.47;0.70;;;;;;;11.65;84.05;96178.19;10384770;28;20615;-55
2023/11/05 06:39:36;;;;;;;4.70;0.82;;;;;;;11.61;84.19;96177.03;10391527;28;20061;-56
2023/11/05 06:44:38;;;;;;;4.10;0.65;;;;;;;11.66;84.83;96185.16;10379166;28;20111;-52
2023/11/05 06:49:39;;;;;;;2.67;0.45;;;;;;;11.63;85.81;96185.63;10369507;28;20067;-52
2023/11/05 06:54:41;;;;;;;2.50;0.40;;;;;;;11.59;84.95;96195.09;10373495;28;20215;-55
2023/11/05 06:59:43;;;;;;;2.42;0.30;;;;;;;11.57;84.72;96191.03;10359560;28;20049;-56
2023/11/05 07:04:45;;;;;;;2.28;0.43;;;;;;;11.47;84.36;96180.97;10365383;28;20517;-55
2023/11/05 07:09:48;;;;;;;3.28;0.47;;;;;;;11.58;84.76;96198.78;10373334;28;20056;-55
2023/11/05 07:14:49;;;;;;;3.78;0.98;;;;;;;11.63;84.83;96212.25;10371809;28;20049;-55
2023/11/05 07:19:53;;;;;;;2.13;0.30;;;;;;;11.64;84.92;96208.53;10377914;28;20061;-54
2023/11/05 07:24:54;;;;;;;0.75;0.20;;;;;;;11.74;84.12;96212.47;10371287;28;20145;-56
2023/11/05 07:29:56;;;;;;;2.42;0.30;;;;;;;11.46;84.44;96179.34;10375871;28;20056;-56
2023/11/05 07:34:58;;;;;;;1.88;0.45;;;;;;;11.73;84.57;96226.84;10383446;28;20053;-67
2023/11/05 07:39:59;;;;;;;1.15;0.30;;;;;;;11.74;84.10;96218.63;10376227;28;20131;-70
2023/11/05 07:45:01;;;;;;;1.77;0.32;;;;;;;11.82;82.87;96230.81;10375229;28;22025;-57
2023/11/05 07:50:02;;;;;;;0.80;0.20;;;;;;;11.84;82.95;96244.69;10374295;28;20476;-55
2023/11/05 07:55:05;;;;;;;2.58;0.30;;;;;;;11.85;82.69;96241.81;10376259;28;20053;-56
2023/11/05 08:00:15;;;;;;;1.30;0.20;;;;;;;11.90;82.04;96241.13;10373415;28;20107;-55
2023/11/05 08:05:16;;;;;;;1.40;0.30;;;;;;;11.88;82.16;96248.53;10348118;28;20041;-54
2023/11/05 08:10:18;;;;;;;1.73;0.28;;;;;;;11.94;81.84;96260.16;10381374;28;20053;-54
2023/11/05 08:15:20;;;;;;;0.73;0.10;;;;;;;12.02;82.18;96265.16;10382314;28;20061;-58
2023/11/05 08:20:22;;;;;;;0.90;0.25;;;;;;;12.10;81.48;96275.47;10393110;28;20229;-54
2023/11/05 08:25:24;;;;;;;3.60;0.30;;;;;;;12.28;81.14;96290.56;10381343;28;20076;-59
2023/11/05 08:46:44;;;;;;;1.85;0.00;;;;;;;12.75;77.50;96302.25;10069918;29;20056;-68
2023/11/05 08:58:08;;;;;;;0.57;0.08;;;;;;;12.71;77.32;96312.56;10067300;29;20044;-67
2023/11/05 09:03:12;;;;;;;0.20;0.00;;;;;;;12.67;77.19;96322.91;10069587;29;20747;-65
2023/11/05 09:08:14;;;;;;;0.30;0.10;;;;;;;12.68;76.79;96335.19;10099733;29;20668;-63
2023/11/05 09:13:16;;;;;;;0.73;0.10;;;;;;;12.64;76.93;96350.06;10102952;29;20134;-65
2023/11/05 09:18:17;;;;;;;0.52;0.05;;;;;;;12.57;78.55;96360.03;10091346;29;20125;-65
2023/11/05 09:23:19;;;;;;;0.60;0.10;;;;;;;12.52;81.06;96378.56;10103912;29;20618;-66
2023/11/05 09:28:21;;;;;;;0.50;0.00;;;;;;;12.44;82.77;96392.25;10094451;29;20044;-64
2023/11/05 09:33:23;;;;;;;0.20;0.00;;;;;;;12.35;84.25;96405.91;10101184;29;20054;-64
2023/11/05 09:38:24;;;;;;;0.68;0.00;;;;;;;12.20;86.54;96413.53;10083882;29;20521;-66
2023/11/05 09:43:26;;;;;;;0.93;0.10;;;;;;;12.13;87.68;96436.78;10085147;29;20067;-65
2023/11/05 09:48:28;;;;;;;0.60;0.00;;;;;;;12.09;90.45;96439.13;10101842;29;20147;-66
2023/11/05 09:53:29;;;;;;;0.75;0.10;;;;;;;12.04;93.39;96454.97;10092425;29;20055;-66
2023/11/05 09:58:33;;;;;;;3.75;0.10;;;;;;;11.97;95.30;96464.91;10103022;29;20056;-65
2023/11/05 10:03:35;;;;;;;1.23;0.13;;;;;;;11.96;96.21;96465.94;10079514;29;20056;-66
2023/11/05 10:08:36;;;;;;;0.20;0.05;;;;;;;11.84;98.16;96466.69;10096346;29;20060;-65
2023/11/05 10:13:38;;;;;;;0.70;0.10;;;;;;;11.96;98.36;96487.25;10097111;29;20540;-63
2023/11/05 10:18:42;;;;;;;1.13;0.10;;;;;;;11.86;99.58;96501.09;10102545;29;20501;-65
2023/11/05 10:23:52;;;;;;;0.50;0.10;;;;;;;11.83;99.80;96498.88;10089332;29;20056;-65
2023/11/05 10:28:54;;;;;;;1.50;0.20;;;;;;;11.95;100.00;96515.78;10104659;29;21398;-63
2023/11/05 10:33:59;;;;;;;1.30;0.20;;;;;;;11.93;100.00;96523.16;10091162;29;20134;-63
2023/11/05 10:39:01;;;;;;;0.73;0.17;;;;;;;11.92;100.00;96540.19;10092472;29;20048;-65
2023/11/05 10:44:06;;;;;;;1.25;0.10;;;;;;;11.84;100.00;96551.13;10071539;29;20052;-65
2023/11/05 10:49:10;;;;;;;1.23;0.10;;;;;;;11.88;100.00;96568.31;10066322;29;20056;-64
2023/11/05 10:54:11;;;;;;;0.30;0.10;;;;;;;11.85;100.00;96579.41;10076429;29;20660;-68
2023/11/05 10:59:32;;;;;;;0.90;0.10;;;;;;;11.90;100.00;96590.19;10085371;29;20644;-67
2023/11/05 11:04:34;;;;;;;0.50;0.20;;;;;;;12.00;100.00;96595.06;10102561;29;20063;-67
2023/11/05 11:09:39;;;;;;;0.73;0.20;;;;;;;12.01;100.00;96602.84;10086394;29;20439;-68
2023/11/05 11:14:40;;;;;;;0.50;0.10;;;;;;;12.06;100.00;96612.03;10098027;29;20078;-63
2023/11/05 11:19:42;;;;;;;0.20;0.10;;;;;;;12.04;100.00;96617.56;10095596;29;20056;-63
2023/11/05 11:24:45;;;;;;;0.73;0.20;;;;;;;12.14;99.80;96620.50;10089506;29;20214;-62
2023/11/05 11:29:47;;;;;;;1.75;0.43;;;;;;;12.20;98.51;96626.81;10103006;29;20072;-64
2023/11/05 11:34:48;;;;;;;1.67;0.30;;;;;;;12.24;96.84;96628.00;10089792;29;20059;-62
2023/11/05 11:39:50;;;;;;;1.08;0.30;;;;;;;12.22;94.93;96630.09;10081803;29;20605;-58
2023/11/05 11:44:55;;;;;;;1.42;0.00;;;;;;;12.21;94.82;96652.44;10088894;29;20084;-67
2023/11/05 11:50:05;;;;;;;1.70;0.15;;;;;;;12.25;95.81;96664.31;10103480;29;20595;-67
2023/11/05 11:55:06;;;;;;;0.70;0.10;;;;;;;12.26;95.24;96659.78;10107295;29;20135;-66
2023/11/05 12:00:14;;;;;;;0.65;0.15;;;;;;;12.32;97.59;96667.69;10096120;29;20067;-67
2023/11/05 12:05:16;;;;;;;0.98;0.15;;;;;;;12.35;98.29;96677.91;10106258;29;20188;-65
2023/11/05 12:10:19;;;;;;;0.98;0.28;;;;;;;12.31;97.07;96697.25;10093301;29;20078;-65
2023/11/05 12:15:21;;;;;;;1.13;0.50;;;;;;;12.37;96.05;96715.88;10102610;29;20071;-65
2023/11/05 12:20:23;;;;;;;1.33;0.40;;;;;;;12.35;95.07;96704.59;10082267;29;20597;-65
2023/11/05 12:25:24;;;;;;;0.80;0.20;;;;;;;12.35;95.27;96725.13;10086963;29;20154;-67
2023/11/05 12:30:28;;;;;;;1.42;0.10;;;;;;;12.28;97.87;96727.03;10102355;29;20060;-64
2023/11/05 12:35:29;;;;;;;0.43;0.20;;;;;;;12.28;99.70;96751.03;10082605;29;20059;-69
2023/11/05 12:40:33;;;;;;;1.10;0.20;;;;;;;12.18;97.77;96757.69;10107292;29;20095;-66
2023/11/05 12:45:35;;;;;;;0.40;0.10;;;;;;;12.20;96.12;96768.97;10091853;29;20075;-69
2023/11/05 12:50:37;;;;;;;0.43;0.10;;;;;;;12.30;94.74;96787.13;10089414;29;20067;-67
2023/11/05 12:55:38;;;;;;;0.85;0.10;;;;;;;12.38;92.27;96784.19;10104163;29;20138;-67
2023/11/05 13:00:40;;;;;;;0.43;0.15;;;;;;;12.45;91.72;96804.63;10093804;29;21096;-65
2023/11/05 13:05:42;;;;;;;2.55;0.20;;;;;;;12.59;90.21;96806.13;10095986;29;20051;-67
2023/11/05 13:10:44;;;;;;;0.47;0.10;;;;;;;12.62;87.82;96827.03;10100226;29;20201;-64
2023/11/05 13:15:45;;;;;;;0.85;0.20;;;;;;;12.67;87.60;96843.22;10103567;29;20060;-67
2023/11/05 13:20:47;;;;;;;0.80;0.00;;;;;;;12.66;86.50;96854.91;10104045;29;20150;-67
2023/11/05 13:25:50;;;;;;;0.80;0.20;;;;;;;12.75;84.67;96867.97;10083001;29;20060;-65
2023/11/05 13:30:52;;;;;;;0.57;0.10;;;;;;;12.78;84.54;96878.22;10060441;29;20060;-66
2023/11/05 13:35:53;;;;;;;1.67;0.35;;;;;;;12.78;83.74;96896.91;10094478;29;20127;-67
2023/11/05 13:40:55;;;;;;;1.55;0.20;;;;;;;12.79;82.07;96907.34;10066182;29;20204;-68
2023/11/05 13:45:57;;;;;;;0.70;0.20;;;;;;;12.81;81.62;96920.47;10076536;29;20132;-66
2023/11/05 13:50:59;;;;;;;1.48;0.10;;;;;;;12.82;82.77;96946.09;10093669;29;20052;-67
2023/11/05 13:56:04;;;;;;;1.13;0.22;;;;;;;12.89;82.89;96960.22;10091059;29;20056;-67
2023/11/05 14:01:07;;;;;;;0.88;0.43;;;;;;;12.92;82.05;96970.47;10078279;29;20099;-67
2023/11/05 14:06:08;;;;;;;2.63;0.40;;;;;;;12.94;82.76;97004.94;10093081;29;20051;-66
2023/11/05 14:11:10;;;;;;;1.65;0.10;;;;;;;12.86;83.37;97022.06;10099994;29;20044;-63
2023/11/05 14:16:12;;;;;;;0.82;0.13;;;;;;;12.77;84.52;97005.47;10092250;29;20067;-67
2023/11/05 14:21:16;;;;;;;0.40;0.10;;;;;;;12.72;85.49;97026.69;10079656;29;20134;-66
2023/11/05 14:26:19;;;;;;;1.98;0.30;;;;;;;12.69;88.63;97049.25;10099921;29;20052;-67
2023/11/05 14:31:22;;;;;;;0.88;0.15;;;;;;;12.64;90.61;97061.59;10062318;29;20217;-67
2023/11/05 14:36:24;;;;;;;1.13;0.15;;;;;;;12.60;90.56;97055.91;10083871;29;20143;-73
2023/11/05 14:41:26;;;;;;;0.57;0.30;;;;;;;12.62;89.60;97072.50;10096106;29;20484;-69
2023/11/05 14:46:28;;;;;;;0.70;0.20;;;;;;;12.63;88.59;97084.81;10078795;29;20076;-68
2023/11/05 14:51:31;;;;;;;1.52;0.52;;;;;;;12.62;89.67;97093.84;10086071;29;20043;-68
2023/11/05 14:56:33;;;;;;;1.45;0.40;;;;;;;12.70;88.66;97098.94;10081206;29;20067;-67
2023/11/05 15:01:34;;;;;;;0.57;0.30;;;;;;;12.62;88.21;97109.84;10074285;29;20122;-67
2023/11/05 15:06:38;;;;;;;1.75;0.40;;;;;;;12.65;87.63;97132.63;10096269;29;20517;-70
2023/11/05 15:11:40;;;;;;;0.80;0.38;;;;;;;12.60;87.91;97153.81;10072101;29;20048;-68
2023/11/05 15:16:42;;;;;;;0.52;0.20;;;;;;;12.58;86.68;97167.38;10083803;29;20112;-67
2023/11/05 15:21:44;;;;;;;0.98;0.20;;;;;;;12.66;86.42;97183.13;10098590;29;20603;-72
2023/11/05 15:26:48;;;;;;;1.10;0.20;;;;;;;12.67;86.16;97194.59;10074876;29;20116;-69
2023/11/05 15:31:50;;;;;;;1.30;0.60;;;;;;;12.66;86.02;97209.00;10084177;29;20055;-68
2023/11/05 15:36:52;;;;;;;1.52;0.40;;;;;;;12.67;85.64;97240.81;10097117;29;20299;-74
2023/11/05 15:41:55;;;;;;;1.23;0.20;;;;;;;12.50;84.84;97250.28;10100401;29;20075;-67
2023/11/05 15:46:58;;;;;;;1.07;0.30;;;;;;;12.51;85.60;97265.28;10064555;29;20056;-64
2023/11/05 15:52:01;;;;;;;0.52;0.20;;;;;;;12.51;85.87;97283.94;10096727;29;20048;-66
2023/11/05 15:57:03;;;;;;;0.47;0.10;;;;;;;12.45;86.95;97316.81;10101916;29;20064;-68
2023/11/05 16:02:05;;;;;;;1.10;0.32;;;;;;;12.34;88.78;97334.22;10100460;29;20048;-71
2023/11/05 16:07:07;;;;;;;1.52;0.10;;;;;;;12.25;88.17;97364.81;10085163;29;20060;-69
2023/11/05 16:12:08;;;;;;;1.05;0.20;;;;;;;12.27;88.96;97382.25;10084573;29;20060;-73
2023/11/05 16:17:10;;;;;;;1.30;0.28;;;;;;;12.34;89.32;97396.41;10095052;29;20059;-73
2023/11/05 16:22:12;;;;;;;1.00;0.32;;;;;;;12.33;89.13;97416.09;10097852;29;20063;-73
2023/11/05 16:27:14;;;;;;;3.45;0.60;;;;;;;12.26;89.20;97428.59;10098793;29;20071;-70
2023/11/05 16:32:16;;;;;;;2.28;0.70;;;;;;;12.32;88.95;97457.13;10094867;29;20089;-72
2023/11/05 16:37:18;;;;;;;0.80;0.40;;;;;;;12.37;88.60;97480.56;10075282;29;20062;-71
2023/11/05 16:42:19;;;;;;;1.52;0.50;;;;;;;12.41;87.50;97500.44;10090812;29;20124;-70
2023/11/05 16:47:21;;;;;;;1.00;0.50;;;;;;;12.31;84.42;97518.69;10083870;29;20248;-74
2023/11/05 16:52:23;;;;;;;0.98;0.45;;;;;;;12.28;83.32;97537.75;10105849;29;20073;-72
2023/11/05 16:57:24;;;;;;;1.10;0.30;;;;;;;12.24;82.16;97550.69;10109197;29;20095;-65
2023/11/05 17:02:27;;;;;;;0.73;0.40;;;;;;;12.28;82.17;97575.94;10100150;29;20158;-65
2023/11/05 17:07:29;;;;;;;1.65;0.57;;;;;;;12.25;81.84;97589.66;10088007;29;20052;-64
2023/11/05 17:12:31;;;;;;;1.30;0.70;;;;;;;12.13;81.22;97596.56;10102915;29;20141;-68
2023/11/05 17:17:34;;;;;;;1.63;0.70;;;;;;;12.12;81.64;97621.59;10108177;29;20052;-66
2023/11/05 17:22:36;;;;;;;2.30;0.70;;;;;;;12.13;81.91;97650.75;10086023;29;20059;-71
2023/11/05 17:27:37;;;;;;;1.98;0.50;;;;;;;12.15;80.70;97661.22;10061209;29;20064;-66
2023/11/05 17:32:39;;;;;;;2.70;0.75;;;;;;;12.05;79.46;97685.53;10104378;29;20536;-66
2023/11/05 17:37:42;;;;;;;2.03;0.60;;;;;;;12.03;79.38;97707.06;10099732;29;20063;-66
2023/11/05 17:42:44;;;;;;;2.90;0.70;;;;;;;12.01;78.87;97730.44;10104726;29;20047;-66
2023/11/05 17:47:45;;;;;;;1.20;0.60;;;;;;;11.93;77.34;97738.59;10105986;29;20147;-66
2023/11/05 17:52:47;;;;;;;1.95;0.70;;;;;;;11.97;77.11;97760.38;10094576;29;20056;-65
2023/11/05 17:57:49;;;;;;;2.13;0.70;;;;;;;11.94;76.99;97779.41;10102578;29;20060;-68
2023/11/05 18:02:52;;;;;;;2.83;0.73;;;;;;;11.95;77.33;97797.03;10102788;23;20130;-65
2023/11/05 18:07:56;;;;;;;1.58;1.02;;;;;;;11.94;76.66;97806.88;10198948;28;20586;-64
2023/11/05 18:13:01;;;;;;;2.97;1.00;;;;;;;11.97;75.67;97835.81;10200291;28;20047;-62
2023/11/05 18:18:02;;;;;;;2.85;1.00;;;;;;;12.02;77.47;97836.09;10194214;28;20144;-65
2023/11/05 18:23:06;;;;;;;1.73;0.90;;;;;;;11.98;75.65;97856.16;10199673;28;20138;-63
2023/11/05 18:28:08;;;;;;;3.38;1.05;;;;;;;12.01;76.40;97865.63;10183615;28;20058;-64
2023/11/05 18:33:12;;;;;;;2.15;0.70;;;;;;;11.90;76.67;97874.88;10188315;28;20113;-65
2023/11/05 18:38:14;;;;;;;1.85;1.13;;;;;;;11.77;77.07;97885.41;10197557;28;20059;-64
2023/11/05 18:43:16;;;;;;;1.90;1.25;;;;;;;11.77;77.53;97890.75;10190243;28;20055;-66
2023/11/05 18:48:20;;;;;;;4.15;1.08;;;;;;;11.75;77.85;97908.78;10169643;28;20140;-65
2023/11/05 18:53:23;;;;;;;4.70;0.82;;;;;;;11.73;77.47;97916.97;10196649;28;20245;-66
2023/11/05 18:58:24;;;;;;;3.03;1.17;;;;;;;11.78;77.70;97929.72;10195411;28;20623;-65
2023/11/05 19:03:26;;;;;;;3.70;1.00;;;;;;;11.76;77.77;97942.41;10187144;28;20081;-64
2023/11/05 19:08:30;;;;;;;2.85;1.27;;;;;;;11.75;78.55;97948.75;10194955;28;20055;-64
2023/11/05 19:13:32;;;;;;;1.50;0.80;;;;;;;11.72;77.75;97962.44;10204815;28;20237;-68
2023/11/05 19:18:34;;;;;;;2.80;1.33;;;;;;;11.70;77.69;97973.31;10165870;28;20065;-76
2023/11/05 19:23:36;;;;;;;1.42;0.80;;;;;;;11.71;78.14;97998.09;10167880;28;20253;-79
2023/11/05 19:28:37;;;;;;;3.92;1.20;;;;;;;11.74;79.79;97997.72;10193865;28;20134;-62
2023/11/05 19:33:39;;;;;;;2.55;1.20;;;;;;;11.76;78.51;98011.72;10170329;28;20514;-71
2023/11/05 19:38:41;;;;;;;4.15;1.15;;;;;;;11.69;78.79;98022.28;10147967;28;20050;-71
2023/11/05 19:43:43;;;;;;;2.13;1.40;;;;;;;11.60;78.98;98039.38;10195696;28;20694;-68
2023/11/05 19:48:45;;;;;;;2.58;1.20;;;;;;;11.60;79.58;98050.84;10175251;28;20594;-74
2023/11/05 19:53:46;;;;;;;1.38;0.60;;;;;;;11.68;79.81;98058.75;10188443;28;20543;-71
2023/11/05 19:58:48;;;;;;;3.13;1.30;;;;;;;11.71;79.54;98067.38;10185914;28;20146;-72
2023/11/05 20:03:50;;;;;;;3.15;1.35;;;;;;;11.68;79.35;98084.59;10195988;28;20050;-70
2023/11/05 20:08:53;;;;;;;1.48;0.85;;;;;;;11.64;79.64;98093.97;10192295;28;20187;-74
2023/11/05 20:13:54;;;;;;;4.07;1.63;;;;;;;11.66;79.62;98106.09;10204038;28;20051;-68
2023/11/05 20:18:56;;;;;;;5.93;0.98;;;;;;;11.67;79.45;98112.25;10193908;28;20285;-70
2023/11/05 20:23:58;;;;;;;4.20;1.10;;;;;;;11.62;79.95;98118.13;10198363;28;20280;-72
2023/11/05 20:29:02;;;;;;;2.08;1.30;;;;;;;11.53;80.29;98113.91;10199363;28;20453;-77
2023/11/05 20:34:12;;;;;;;2.25;0.95;;;;;;;11.54;80.18;98128.03;10192478;28;20407;-66
2023/11/05 20:39:17;;;;;;;1.52;0.70;;;;;;;11.47;80.16;98135.94;10196067;28;20169;-65
2023/11/05 20:44:19;;;;;;;1.88;0.77;;;;;;;11.52;80.40;98154.84;10193398;28;20055;-65
2023/11/05 20:49:21;;;;;;;1.95;1.15;;;;;;;11.53;80.85;98159.19;10204991;28;20194;-73
2023/11/05 20:54:23;;;;;;;2.75;0.82;;;;;;;11.55;81.17;98159.81;10192293;28;20253;-67
2023/11/05 20:59:26;;;;;;;3.70;0.85;;;;;;;11.48;80.97;98172.22;10194236;28;20093;-71
2023/11/05 21:04:29;;;;;;;4.53;0.70;;;;;;;11.36;81.31;98166.47;10194327;28;20358;-70
2023/11/05 21:09:31;;;;;;;1.65;0.65;;;;;;;11.32;81.65;98186.50;10176777;28;20054;-63
2023/11/05 21:14:33;;;;;;;2.88;0.70;;;;;;;11.31;81.86;98175.00;10197078;28;20515;-69
2023/11/05 21:19:34;;;;;;;2.55;0.70;;;;;;;11.35;81.43;98179.97;10174406;28;20058;-62
2023/11/05 21:24:36;;;;;;;3.33;1.17;;;;;;;11.32;81.52;98182.00;10183938;28;20059;-70
2023/11/05 21:29:37;;;;;;;2.50;0.70;;;;;;;11.31;81.15;98198.16;10198839;28;20383;-63
2023/11/05 21:34:39;;;;;;;2.35;1.10;;;;;;;11.33;80.96;98212.13;10194046;28;20070;-68
2023/11/05 21:39:41;;;;;;;2.35;0.95;;;;;;;11.32;80.75;98216.63;10212507;28;20186;-67
2023/11/05 21:44:42;;;;;;;3.28;0.73;;;;;;;11.32;80.18;98219.28;10186543;28;20054;-68
2023/11/05 21:49:44;;;;;;;1.45;0.60;;;;;;;11.22;79.86;98229.34;10193838;28;20798;-73
2023/11/05 21:54:46;;;;;;;2.97;0.68;;;;;;;11.21;80.33;98242.84;10202228;28;20050;-67
2023/11/05 21:59:47;;;;;;;2.63;0.70;;;;;;;11.20;80.41;98228.72;10198826;28;20090;-66
2023/11/05 22:04:49;;;;;;;2.03;0.40;;;;;;;11.25;80.38;98250.31;10201660;28;20590;-69
2023/11/05 22:09:51;;;;;;;2.22;0.75;;;;;;;11.24;80.59;98259.28;10199361;28;20268;-72
2023/11/05 22:14:54;;;;;;;1.65;0.60;;;;;;;11.20;80.43;98263.34;10201520;28;21549;-72
2023/11/05 22:19:56;;;;;;;2.05;0.60;;;;;;;11.22;80.83;98271.13;10201544;28;20423;-71
2023/11/05 22:24:58;;;;;;;1.75;0.50;;;;;;;11.23;81.21;98264.78;10199593;28;20078;-73
2023/11/05 22:30:00;;;;;;;2.38;0.70;;;;;;;11.17;81.38;98274.34;10215614;28;20578;-70
2023/11/05 22:35:04;;;;;;;1.77;0.35;;;;;;;11.15;81.73;98276.31;10189033;28;20050;-68
2023/11/05 22:40:13;;;;;;;2.00;0.50;;;;;;;11.16;81.56;98278.00;10200792;28;20054;-68
2023/11/05 22:45:15;;;;;;;1.30;0.60;;;;;;;11.16;81.83;98293.16;10198499;28;20547;-70
2023/11/05 22:50:17;;;;;;;1.13;0.40;;;;;;;11.20;81.77;98300.63;10200872;28;20046;-70
2023/11/05 22:55:21;;;;;;;4.15;0.50;;;;;;;11.17;81.83;98303.63;10242580;28;20266;-70
2023/11/05 23:00:29;;;;;;;1.93;0.60;;;;;;;11.19;81.49;98312.25;10246461;28;20523;-70
2023/11/05 23:05:30;;;;;;;1.88;0.70;;;;;;;11.07;81.78;98297.69;10228676;28;20121;-72
2023/11/05 23:10:32;;;;;;;2.58;0.75;;;;;;;11.18;81.87;98313.25;10229149;28;20050;-70
2023/11/05 23:15:37;;;;;;;4.15;0.68;;;;;;;11.14;81.81;98325.28;10202433;28;20700;-69
2023/11/05 23:20:38;;;;;;;1.80;0.55;;;;;;;11.17;81.85;98337.41;10226372;28;20422;-69
2023/11/05 23:25:42;;;;;;;2.72;0.52;;;;;;;11.20;81.81;98332.56;10224709;28;20209;-70
2023/11/05 23:30:44;;;;;;;2.97;0.77;;;;;;;11.10;81.93;98343.41;10223241;28;20141;-69
2023/11/05 23:35:45;;;;;;;2.97;0.70;;;;;;;11.12;82.25;98345.91;10233597;28;20226;-69
2023/11/05 23:40:50;;;;;;;3.72;1.27;;;;;;;11.11;82.57;98352.25;10232135;28;20405;-70
2023/11/05 23:45:52;;;;;;;4.50;0.70;;;;;;;11.10;82.73;98364.72;10232480;28;20046;-69